< < Back
Terminal Aerodrome Forecast


Current Version              Previous Versions:   1  2  3  4  5  6  7  8  9  

Terminal Aerodrome Forecast

925
FTUS44 KBMX 232300
TAFTCL
TAF
KTCL 232330Z 2400/2424 VRB03KT P6SM SKC
     FM241600 18006KT P6SM SKC=



Latest METAR

165
SAUS70 KWBC 232300 RRC
MTRTCL
METAR KTCL 232253Z 02004KT 10SM CLR 27/06 A2991 RMK AO2 SLP125
T02670056


USA.gov is the U.S. government's official web portal to all federal, state and local government web resources and services.